sensor_id;sensor_type;location;lat;lon;timestamp;P1;durP1;ratioP1;P2;durP2;ratioP2
57077;SDS011;75967;50.970;4.574;2024-01-27T00:01:22;19.92;;;6.63;;
57077;SDS011;75967;50.970;4.574;2024-01-27T00:03:48;12.10;;;5.13;;
57077;SDS011;75967;50.970;4.574;2024-01-27T00:06:14;17.80;;;6.25;;
57077;SDS011;75967;50.970;4.574;2024-01-27T00:08:40;14.52;;;5.82;;
57077;SDS011;75967;50.970;4.574;2024-01-27T00:11:06;16.00;;;5.90;;
57077;SDS011;75967;50.970;4.574;2024-01-27T00:13:31;11.18;;;5.82;;
57077;SDS011;75967;50.970;4.574;2024-01-27T00:15:57;14.75;;;6.25;;
57077;SDS011;75967;50.970;4.574;2024-01-27T00:18:23;20.00;;;7.43;;
57077;SDS011;75967;50.970;4.574;2024-01-27T00:20:48;12.13;;;5.68;;
57077;SDS011;75967;50.970;4.574;2024-01-27T00:23:14;21.40;;;5.82;;
57077;SDS011;75967;50.970;4.574;2024-01-27T00:25:40;17.30;;;6.28;;
57077;SDS011;75967;50.970;4.574;2024-01-27T00:28:05;13.15;;;5.05;;
57077;SDS011;75967;50.970;4.574;2024-01-27T00:30:31;12.27;;;5.72;;
57077;SDS011;75967;50.970;4.574;2024-01-27T00:32:57;18.98;;;5.78;;
57077;SDS011;75967;50.970;4.574;2024-01-27T00:35:22;15.02;;;6.22;;
57077;SDS011;75967;50.970;4.574;2024-01-27T00:37:48;18.75;;;6.25;;
57077;SDS011;75967;50.970;4.574;2024-01-27T00:40:14;13.88;;;5.75;;
57077;SDS011;75967;50.970;4.574;2024-01-27T00:42:40;11.82;;;6.50;;
57077;SDS011;75967;50.970;4.574;2024-01-27T00:45:06;13.65;;;5.85;;
57077;SDS011;75967;50.970;4.574;2024-01-27T00:47:32;21.70;;;5.32;;
57077;SDS011;75967;50.970;4.574;2024-01-27T00:49:58;15.40;;;6.35;;
57077;SDS011;75967;50.970;4.574;2024-01-27T00:52:23;19.10;;;6.57;;
57077;SDS011;75967;50.970;4.574;2024-01-27T00:54:49;13.70;;;5.80;;
57077;SDS011;75967;50.970;4.574;2024-01-27T00:57:15;15.43;;;6.78;;
57077;SDS011;75967;50.970;4.574;2024-01-27T00:59:41;10.25;;;6.45;;
57077;SDS011;75967;50.970;4.574;2024-01-27T01:02:06;18.83;;;7.28;;
57077;SDS011;75967;50.970;4.574;2024-01-27T01:04:32;15.15;;;5.88;;
57077;SDS011;75967;50.970;4.574;2024-01-27T01:06:58;16.17;;;6.95;;
57077;SDS011;75967;50.970;4.574;2024-01-27T01:09:24;15.13;;;6.45;;
57077;SDS011;75967;50.970;4.574;2024-01-27T01:11:50;12.85;;;6.38;;
57077;SDS011;75967;50.970;4.574;2024-01-27T01:14:15;14.35;;;5.78;;
57077;SDS011;75967;50.970;4.574;2024-01-27T01:16:41;16.05;;;5.93;;
57077;SDS011;75967;50.970;4.574;2024-01-27T01:19:07;14.38;;;6.28;;
57077;SDS011;75967;50.970;4.574;2024-01-27T01:21:33;15.48;;;6.53;;
57077;SDS011;75967;50.970;4.574;2024-01-27T01:23:59;14.13;;;6.40;;
57077;SDS011;75967;50.970;4.574;2024-01-27T01:26:24;19.60;;;7.32;;
57077;SDS011;75967;50.970;4.574;2024-01-27T01:28:50;16.40;;;6.70;;
57077;SDS011;75967;50.970;4.574;2024-01-27T01:31:16;14.48;;;6.93;;
57077;SDS011;75967;50.970;4.574;2024-01-27T01:33:42;16.08;;;6.07;;
57077;SDS011;75967;50.970;4.574;2024-01-27T01:36:08;16.58;;;6.93;;
57077;SDS011;75967;50.970;4.574;2024-01-27T01:38:34;12.93;;;6.28;;
57077;SDS011;75967;50.970;4.574;2024-01-27T01:41:00;17.25;;;6.22;;
57077;SDS011;75967;50.970;4.574;2024-01-27T01:43:25;16.60;;;7.25;;
57077;SDS011;75967;50.970;4.574;2024-01-27T01:45:51;11.48;;;6.15;;
57077;SDS011;75967;50.970;4.574;2024-01-27T01:48:19;18.85;;;7.05;;
57077;SDS011;75967;50.970;4.574;2024-01-27T01:50:45;19.70;;;7.13;;
57077;SDS011;75967;50.970;4.574;2024-01-27T01:53:12;20.05;;;7.13;;
57077;SDS011;75967;50.970;4.574;2024-01-27T01:55:38;16.65;;;6.43;;
57077;SDS011;75967;50.970;4.574;2024-01-27T01:58:04;16.85;;;6.65;;
57077;SDS011;75967;50.970;4.574;2024-01-27T02:00:31;16.33;;;8.40;;
57077;SDS011;75967;50.970;4.574;2024-01-27T02:02:57;24.92;;;8.18;;
57077;SDS011;75967;50.970;4.574;2024-01-27T02:05:22;16.50;;;7.65;;
57077;SDS011;75967;50.970;4.574;2024-01-27T02:07:48;15.63;;;7.43;;
57077;SDS011;75967;50.970;4.574;2024-01-27T02:10:15;15.75;;;7.35;;
57077;SDS011;75967;50.970;4.574;2024-01-27T02:12:44;18.13;;;6.30;;
57077;SDS011;75967;50.970;4.574;2024-01-27T02:15:11;15.82;;;7.43;;
57077;SDS011;75967;50.970;4.574;2024-01-27T02:17:40;20.65;;;7.38;;
57077;SDS011;75967;50.970;4.574;2024-01-27T02:20:06;16.35;;;8.32;;
57077;SDS011;75967;50.970;4.574;2024-01-27T02:22:33;21.33;;;7.32;;
57077;SDS011;75967;50.970;4.574;2024-01-27T02:24:59;19.23;;;7.53;;
57077;SDS011;75967;50.970;4.574;2024-01-27T02:27:25;14.38;;;7.63;;
57077;SDS011;75967;50.970;4.574;2024-01-27T02:29:50;14.02;;;6.95;;
57077;SDS011;75967;50.970;4.574;2024-01-27T02:32:16;14.32;;;7.10;;
57077;SDS011;75967;50.970;4.574;2024-01-27T02:34:42;21.77;;;8.23;;
57077;SDS011;75967;50.970;4.574;2024-01-27T02:37:07;17.83;;;8.40;;
57077;SDS011;75967;50.970;4.574;2024-01-27T02:39:34;19.00;;;7.88;;
57077;SDS011;75967;50.970;4.574;2024-01-27T02:41:59;20.60;;;8.50;;
57077;SDS011;75967;50.970;4.574;2024-01-27T02:44:25;16.10;;;7.57;;
57077;SDS011;75967;50.970;4.574;2024-01-27T02:46:51;25.63;;;8.93;;
57077;SDS011;75967;50.970;4.574;2024-01-27T02:49:16;23.92;;;8.65;;
57077;SDS011;75967;50.970;4.574;2024-01-27T02:51:42;19.80;;;7.53;;
57077;SDS011;75967;50.970;4.574;2024-01-27T02:54:09;18.27;;;8.70;;
57077;SDS011;75967;50.970;4.574;2024-01-27T02:56:34;19.90;;;8.15;;
57077;SDS011;75967;50.970;4.574;2024-01-27T02:59:00;20.08;;;8.40;;
57077;SDS011;75967;50.970;4.574;2024-01-27T03:01:26;20.35;;;8.73;;
57077;SDS011;75967;50.970;4.574;2024-01-27T03:03:51;18.35;;;8.57;;
57077;SDS011;75967;50.970;4.574;2024-01-27T03:06:17;22.65;;;8.02;;
57077;SDS011;75967;50.970;4.574;2024-01-27T03:08:43;25.60;;;8.18;;
57077;SDS011;75967;50.970;4.574;2024-01-27T03:11:08;21.95;;;9.43;;
57077;SDS011;75967;50.970;4.574;2024-01-27T03:13:34;15.50;;;8.27;;
57077;SDS011;75967;50.970;4.574;2024-01-27T03:15:59;21.17;;;8.43;;
57077;SDS011;75967;50.970;4.574;2024-01-27T03:18:25;24.05;;;8.27;;
57077;SDS011;75967;50.970;4.574;2024-01-27T03:20:51;24.85;;;9.00;;
57077;SDS011;75967;50.970;4.574;2024-01-27T03:23:16;23.35;;;8.27;;
57077;SDS011;75967;50.970;4.574;2024-01-27T03:25:42;21.48;;;9.30;;
57077;SDS011;75967;50.970;4.574;2024-01-27T03:28:08;20.50;;;8.05;;
57077;SDS011;75967;50.970;4.574;2024-01-27T03:30:34;19.33;;;8.52;;
57077;SDS011;75967;50.970;4.574;2024-01-27T03:32:59;25.38;;;9.70;;
57077;SDS011;75967;50.970;4.574;2024-01-27T03:35:25;15.85;;;7.85;;
57077;SDS011;75967;50.970;4.574;2024-01-27T03:37:50;16.70;;;8.10;;
57077;SDS011;75967;50.970;4.574;2024-01-27T03:40:16;18.98;;;7.85;;
57077;SDS011;75967;50.970;4.574;2024-01-27T03:42:43;20.30;;;8.10;;
57077;SDS011;75967;50.970;4.574;2024-01-27T03:45:08;20.65;;;8.38;;
57077;SDS011;75967;50.970;4.574;2024-01-27T03:47:34;18.95;;;8.88;;
57077;SDS011;75967;50.970;4.574;2024-01-27T03:50:00;18.80;;;8.55;;
57077;SDS011;75967;50.970;4.574;2024-01-27T03:52:25;18.27;;;8.73;;
57077;SDS011;75967;50.970;4.574;2024-01-27T03:54:51;18.48;;;9.13;;
57077;SDS011;75967;50.970;4.574;2024-01-27T03:57:17;23.75;;;9.02;;
57077;SDS011;75967;50.970;4.574;2024-01-27T03:59:42;23.05;;;9.73;;
57077;SDS011;75967;50.970;4.574;2024-01-27T04:02:08;21.23;;;8.73;;
57077;SDS011;75967;50.970;4.574;2024-01-27T04:04:34;19.73;;;9.63;;
57077;SDS011;75967;50.970;4.574;2024-01-27T04:06:59;19.75;;;9.20;;
57077;SDS011;75967;50.970;4.574;2024-01-27T04:09:26;25.23;;;9.80;;
57077;SDS011;75967;50.970;4.574;2024-01-27T04:11:52;22.77;;;9.60;;
57077;SDS011;75967;50.970;4.574;2024-01-27T04:14:18;25.40;;;9.63;;
57077;SDS011;75967;50.970;4.574;2024-01-27T04:16:43;17.85;;;9.00;;
57077;SDS011;75967;50.970;4.574;2024-01-27T04:19:09;21.00;;;9.40;;
57077;SDS011;75967;50.970;4.574;2024-01-27T04:21:35;20.85;;;9.68;;
57077;SDS011;75967;50.970;4.574;2024-01-27T04:24:00;19.55;;;9.90;;
57077;SDS011;75967;50.970;4.574;2024-01-27T04:26:26;16.38;;;9.15;;
57077;SDS011;75967;50.970;4.574;2024-01-27T04:28:51;17.02;;;8.90;;
57077;SDS011;75967;50.970;4.574;2024-01-27T04:31:17;16.42;;;8.75;;
57077;SDS011;75967;50.970;4.574;2024-01-27T04:33:43;19.35;;;8.88;;
57077;SDS011;75967;50.970;4.574;2024-01-27T04:36:08;15.95;;;8.30;;
57077;SDS011;75967;50.970;4.574;2024-01-27T04:38:35;20.00;;;9.40;;
57077;SDS011;75967;50.970;4.574;2024-01-27T04:41:01;21.17;;;8.15;;
57077;SDS011;75967;50.970;4.574;2024-01-27T04:43:27;20.50;;;8.93;;
57077;SDS011;75967;50.970;4.574;2024-01-27T04:45:53;18.42;;;7.47;;
57077;SDS011;75967;50.970;4.574;2024-01-27T04:48:19;20.33;;;8.63;;
57077;SDS011;75967;50.970;4.574;2024-01-27T04:50:45;19.30;;;8.05;;
57077;SDS011;75967;50.970;4.574;2024-01-27T04:53:11;23.75;;;8.57;;
57077;SDS011;75967;50.970;4.574;2024-01-27T04:55:37;16.90;;;8.93;;
57077;SDS011;75967;50.970;4.574;2024-01-27T04:58:03;16.73;;;8.88;;
57077;SDS011;75967;50.970;4.574;2024-01-27T05:00:29;17.95;;;8.73;;
57077;SDS011;75967;50.970;4.574;2024-01-27T05:02:55;27.83;;;8.70;;
57077;SDS011;75967;50.970;4.574;2024-01-27T05:05:24;18.33;;;7.97;;
57077;SDS011;75967;50.970;4.574;2024-01-27T05:07:49;16.27;;;8.55;;
57077;SDS011;75967;50.970;4.574;2024-01-27T05:10:15;17.98;;;8.25;;
57077;SDS011;75967;50.970;4.574;2024-01-27T05:12:42;22.00;;;8.57;;
57077;SDS011;75967;50.970;4.574;2024-01-27T05:15:07;20.13;;;8.27;;
57077;SDS011;75967;50.970;4.574;2024-01-27T05:17:35;13.50;;;7.07;;
57077;SDS011;75967;50.970;4.574;2024-01-27T05:20:01;24.60;;;8.45;;
57077;SDS011;75967;50.970;4.574;2024-01-27T05:22:29;17.02;;;8.43;;
57077;SDS011;75967;50.970;4.574;2024-01-27T05:24:55;15.48;;;8.80;;
57077;SDS011;75967;50.970;4.574;2024-01-27T05:27:20;18.20;;;8.57;;
57077;SDS011;75967;50.970;4.574;2024-01-27T05:29:46;18.60;;;8.23;;
57077;SDS011;75967;50.970;4.574;2024-01-27T05:32:11;23.48;;;8.82;;
57077;SDS011;75967;50.970;4.574;2024-01-27T05:34:37;22.13;;;8.20;;
57077;SDS011;75967;50.970;4.574;2024-01-27T05:37:03;17.60;;;8.85;;
57077;SDS011;75967;50.970;4.574;2024-01-27T05:39:28;21.05;;;8.38;;
57077;SDS011;75967;50.970;4.574;2024-01-27T05:41:54;20.05;;;7.47;;
57077;SDS011;75967;50.970;4.574;2024-01-27T05:44:20;16.70;;;7.53;;
57077;SDS011;75967;50.970;4.574;2024-01-27T05:46:46;17.30;;;7.68;;
57077;SDS011;75967;50.970;4.574;2024-01-27T05:49:12;15.95;;;8.30;;
57077;SDS011;75967;50.970;4.574;2024-01-27T05:51:37;20.52;;;8.60;;
57077;SDS011;75967;50.970;4.574;2024-01-27T05:54:03;16.30;;;7.22;;
57077;SDS011;75967;50.970;4.574;2024-01-27T05:56:29;17.02;;;8.25;;
57077;SDS011;75967;50.970;4.574;2024-01-27T05:58:54;15.75;;;7.57;;
57077;SDS011;75967;50.970;4.574;2024-01-27T06:01:20;17.15;;;7.20;;
57077;SDS011;75967;50.970;4.574;2024-01-27T06:03:46;26.60;;;9.45;;
57077;SDS011;75967;50.970;4.574;2024-01-27T06:06:12;12.63;;;8.05;;
57077;SDS011;75967;50.970;4.574;2024-01-27T06:08:37;14.27;;;7.72;;
57077;SDS011;75967;50.970;4.574;2024-01-27T06:11:03;25.52;;;9.13;;
57077;SDS011;75967;50.970;4.574;2024-01-27T06:13:29;18.55;;;7.32;;
57077;SDS011;75967;50.970;4.574;2024-01-27T06:15:58;20.13;;;9.00;;
57077;SDS011;75967;50.970;4.574;2024-01-27T06:18:24;18.90;;;8.35;;
57077;SDS011;75967;50.970;4.574;2024-01-27T06:20:50;23.33;;;7.65;;
57077;SDS011;75967;50.970;4.574;2024-01-27T06:23:16;19.65;;;7.85;;
57077;SDS011;75967;50.970;4.574;2024-01-27T06:25:42;14.80;;;7.60;;
57077;SDS011;75967;50.970;4.574;2024-01-27T06:28:08;20.48;;;7.47;;
57077;SDS011;75967;50.970;4.574;2024-01-27T06:30:33;18.95;;;8.98;;
57077;SDS011;75967;50.970;4.574;2024-01-27T06:32:59;21.55;;;9.38;;
57077;SDS011;75967;50.970;4.574;2024-01-27T06:35:25;30.60;;;11.18;;
57077;SDS011;75967;50.970;4.574;2024-01-27T06:37:50;28.13;;;13.70;;
57077;SDS011;75967;50.970;4.574;2024-01-27T06:40:16;100.25;;;42.55;;
57077;SDS011;75967;50.970;4.574;2024-01-27T06:42:42;112.13;;;51.10;;
57077;SDS011;75967;50.970;4.574;2024-01-27T06:45:08;128.80;;;54.45;;
57077;SDS011;75967;50.970;4.574;2024-01-27T06:47:34;80.38;;;35.72;;
57077;SDS011;75967;50.970;4.574;2024-01-27T06:49:59;74.95;;;32.60;;
57077;SDS011;75967;50.970;4.574;2024-01-27T06:52:25;43.20;;;22.00;;
57077;SDS011;75967;50.970;4.574;2024-01-27T06:54:51;42.03;;;21.88;;
57077;SDS011;75967;50.970;4.574;2024-01-27T06:57:23;39.90;;;18.30;;
57077;SDS011;75967;50.970;4.574;2024-01-27T06:59:51;23.23;;;12.52;;
57077;SDS011;75967;50.970;4.574;2024-01-27T07:02:26;23.88;;;12.13;;
57077;SDS011;75967;50.970;4.574;2024-01-27T07:07:20;23.70;;;10.05;;
57077;SDS011;75967;50.970;4.574;2024-01-27T07:09:52;20.88;;;9.63;;
57077;SDS011;75967;50.970;4.574;2024-01-27T07:12:19;20.25;;;9.07;;
57077;SDS011;75967;50.970;4.574;2024-01-27T07:14:45;19.00;;;9.38;;
57077;SDS011;75967;50.970;4.574;2024-01-27T07:17:10;14.48;;;8.80;;
57077;SDS011;75967;50.970;4.574;2024-01-27T07:19:36;22.27;;;9.10;;
57077;SDS011;75967;50.970;4.574;2024-01-27T07:22:02;16.65;;;8.77;;
57077;SDS011;75967;50.970;4.574;2024-01-27T07:24:29;18.35;;;8.93;;
57077;SDS011;75967;50.970;4.574;2024-01-27T07:26:55;22.40;;;8.40;;
57077;SDS011;75967;50.970;4.574;2024-01-27T07:29:20;20.08;;;8.55;;
57077;SDS011;75967;50.970;4.574;2024-01-27T07:31:46;22.98;;;8.35;;
57077;SDS011;75967;50.970;4.574;2024-01-27T07:34:12;20.85;;;9.50;;
57077;SDS011;75967;50.970;4.574;2024-01-27T07:36:38;19.08;;;9.32;;
57077;SDS011;75967;50.970;4.574;2024-01-27T07:39:04;20.23;;;8.48;;
57077;SDS011;75967;50.970;4.574;2024-01-27T07:41:30;26.35;;;9.98;;
57077;SDS011;75967;50.970;4.574;2024-01-27T07:43:56;26.50;;;9.88;;
57077;SDS011;75967;50.970;4.574;2024-01-27T07:46:21;26.95;;;9.23;;
57077;SDS011;75967;50.970;4.574;2024-01-27T07:48:48;22.50;;;8.65;;
57077;SDS011;75967;50.970;4.574;2024-01-27T07:51:14;26.23;;;9.88;;
57077;SDS011;75967;50.970;4.574;2024-01-27T07:53:40;23.02;;;9.85;;
57077;SDS011;75967;50.970;4.574;2024-01-27T07:56:06;20.85;;;10.00;;
57077;SDS011;75967;50.970;4.574;2024-01-27T07:58:32;19.08;;;10.95;;
57077;SDS011;75967;50.970;4.574;2024-01-27T08:00:58;24.50;;;11.63;;
57077;SDS011;75967;50.970;4.574;2024-01-27T08:03:25;20.45;;;11.52;;
57077;SDS011;75967;50.970;4.574;2024-01-27T08:05:50;22.05;;;9.63;;
57077;SDS011;75967;50.970;4.574;2024-01-27T08:08:16;20.95;;;9.63;;
57077;SDS011;75967;50.970;4.574;2024-01-27T08:10:42;28.10;;;9.15;;
57077;SDS011;75967;50.970;4.574;2024-01-27T08:13:07;16.85;;;8.82;;
57077;SDS011;75967;50.970;4.574;2024-01-27T08:15:33;25.13;;;10.23;;
57077;SDS011;75967;50.970;4.574;2024-01-27T08:17:58;26.13;;;9.70;;
57077;SDS011;75967;50.970;4.574;2024-01-27T08:20:24;22.85;;;9.48;;
57077;SDS011;75967;50.970;4.574;2024-01-27T08:22:50;17.00;;;9.30;;
57077;SDS011;75967;50.970;4.574;2024-01-27T08:25:16;22.23;;;11.02;;
57077;SDS011;75967;50.970;4.574;2024-01-27T08:27:43;30.88;;;12.68;;
57077;SDS011;75967;50.970;4.574;2024-01-27T08:30:08;21.50;;;10.75;;
57077;SDS011;75967;50.970;4.574;2024-01-27T08:32:35;27.13;;;12.68;;
57077;SDS011;75967;50.970;4.574;2024-01-27T08:35:01;49.80;;;21.77;;
57077;SDS011;75967;50.970;4.574;2024-01-27T08:37:26;28.45;;;13.60;;
57077;SDS011;75967;50.970;4.574;2024-01-27T08:39:52;21.48;;;9.45;;
57077;SDS011;75967;50.970;4.574;2024-01-27T08:42:18;14.95;;;6.97;;
57077;SDS011;75967;50.970;4.574;2024-01-27T08:44:44;19.00;;;7.32;;
57077;SDS011;75967;50.970;4.574;2024-01-27T08:47:09;12.38;;;5.85;;
57077;SDS011;75967;50.970;4.574;2024-01-27T08:49:35;15.05;;;5.97;;
57077;SDS011;75967;50.970;4.574;2024-01-27T08:52:01;17.08;;;8.48;;
57077;SDS011;75967;50.970;4.574;2024-01-27T08:54:26;19.65;;;5.93;;
57077;SDS011;75967;50.970;4.574;2024-01-27T08:56:52;22.90;;;6.57;;
57077;SDS011;75967;50.970;4.574;2024-01-27T08:59:18;14.05;;;6.60;;
57077;SDS011;75967;50.970;4.574;2024-01-27T09:01:43;13.15;;;5.43;;
57077;SDS011;75967;50.970;4.574;2024-01-27T09:04:09;18.15;;;6.35;;
57077;SDS011;75967;50.970;4.574;2024-01-27T09:06:34;11.40;;;5.07;;
57077;SDS011;75967;50.970;4.574;2024-01-27T09:09:00;12.38;;;5.25;;
57077;SDS011;75967;50.970;4.574;2024-01-27T09:11:26;17.80;;;6.25;;
57077;SDS011;75967;50.970;4.574;2024-01-27T09:13:55;11.52;;;5.10;;
57077;SDS011;75967;50.970;4.574;2024-01-27T09:16:21;20.05;;;5.70;;
57077;SDS011;75967;50.970;4.574;2024-01-27T09:18:47;20.80;;;5.82;;
57077;SDS011;75967;50.970;4.574;2024-01-27T09:21:15;17.02;;;5.97;;
57077;SDS011;75967;50.970;4.574;2024-01-27T09:23:45;13.52;;;5.75;;
57077;SDS011;75967;50.970;4.574;2024-01-27T09:26:12;13.32;;;5.95;;
57077;SDS011;75967;50.970;4.574;2024-01-27T09:28:38;15.63;;;6.72;;
57077;SDS011;75967;50.970;4.574;2024-01-27T09:31:09;16.05;;;5.82;;
57077;SDS011;75967;50.970;4.574;2024-01-27T09:33:35;17.35;;;5.57;;
57077;SDS011;75967;50.970;4.574;2024-01-27T09:36:01;11.68;;;5.07;;
57077;SDS011;75967;50.970;4.574;2024-01-27T09:38:27;14.98;;;5.50;;
57077;SDS011;75967;50.970;4.574;2024-01-27T09:40:53;13.45;;;5.55;;
57077;SDS011;75967;50.970;4.574;2024-01-27T09:43:18;14.18;;;6.28;;
57077;SDS011;75967;50.970;4.574;2024-01-27T09:45:46;16.33;;;5.85;;
57077;SDS011;75967;50.970;4.574;2024-01-27T09:48:12;14.23;;;5.88;;
57077;SDS011;75967;50.970;4.574;2024-01-27T09:50:41;13.25;;;5.70;;
57077;SDS011;75967;50.970;4.574;2024-01-27T09:53:07;12.38;;;6.00;;
57077;SDS011;75967;50.970;4.574;2024-01-27T09:55:34;19.05;;;6.68;;
57077;SDS011;75967;50.970;4.574;2024-01-27T09:58:00;16.05;;;6.95;;
57077;SDS011;75967;50.970;4.574;2024-01-27T10:00:26;16.42;;;6.20;;
57077;SDS011;75967;50.970;4.574;2024-01-27T10:02:54;16.75;;;6.25;;
57077;SDS011;75967;50.970;4.574;2024-01-27T10:05:19;16.75;;;6.55;;
57077;SDS011;75967;50.970;4.574;2024-01-27T10:07:46;17.45;;;6.47;;
57077;SDS011;75967;50.970;4.574;2024-01-27T10:10:12;14.52;;;6.63;;
57077;SDS011;75967;50.970;4.574;2024-01-27T10:12:39;13.57;;;6.53;;
57077;SDS011;75967;50.970;4.574;2024-01-27T10:15:18;14.60;;;6.78;;
57077;SDS011;75967;50.970;4.574;2024-01-27T10:17:45;20.35;;;7.05;;
57077;SDS011;75967;50.970;4.574;2024-01-27T10:20:11;10.70;;;5.88;;
57077;SDS011;75967;50.970;4.574;2024-01-27T10:22:40;12.05;;;5.90;;
57077;SDS011;75967;50.970;4.574;2024-01-27T10:25:07;13.73;;;5.18;;
57077;SDS011;75967;50.970;4.574;2024-01-27T10:27:34;12.48;;;5.47;;
57077;SDS011;75967;50.970;4.574;2024-01-27T10:30:00;9.63;;;5.00;;
57077;SDS011;75967;50.970;4.574;2024-01-27T10:32:27;16.50;;;5.38;;
57077;SDS011;75967;50.970;4.574;2024-01-27T10:35:03;14.80;;;4.57;;
57077;SDS011;75967;50.970;4.574;2024-01-27T10:37:30;11.05;;;4.22;;
57077;SDS011;75967;50.970;4.574;2024-01-27T10:40:05;13.55;;;4.78;;
57077;SDS011;75967;50.970;4.574;2024-01-27T10:42:36;14.77;;;4.28;;
57077;SDS011;75967;50.970;4.574;2024-01-27T10:45:02;10.00;;;3.63;;
57077;SDS011;75967;50.970;4.574;2024-01-27T10:47:30;9.05;;;3.70;;
57077;SDS011;75967;50.970;4.574;2024-01-27T10:49:57;14.18;;;3.90;;
57077;SDS011;75967;50.970;4.574;2024-01-27T10:52:25;10.57;;;3.95;;
57077;SDS011;75967;50.970;4.574;2024-01-27T10:54:58;9.65;;;3.58;;
57077;SDS011;75967;50.970;4.574;2024-01-27T10:57:28;11.30;;;3.45;;
57077;SDS011;75967;50.970;4.574;2024-01-27T10:59:55;9.10;;;3.80;;
57077;SDS011;75967;50.970;4.574;2024-01-27T11:02:23;9.48;;;3.80;;
57077;SDS011;75967;50.970;4.574;2024-01-27T11:04:49;10.43;;;3.63;;
57077;SDS011;75967;50.970;4.574;2024-01-27T11:07:19;13.43;;;3.50;;
57077;SDS011;75967;50.970;4.574;2024-01-27T11:09:48;15.52;;;4.05;;
57077;SDS011;75967;50.970;4.574;2024-01-27T11:12:16;8.77;;;3.65;;
57077;SDS011;75967;50.970;4.574;2024-01-27T11:14:42;12.00;;;4.28;;
57077;SDS011;75967;50.970;4.574;2024-01-27T11:17:10;12.30;;;4.05;;
57077;SDS011;75967;50.970;4.574;2024-01-27T11:19:35;9.90;;;3.88;;
57077;SDS011;75967;50.970;4.574;2024-01-27T11:22:01;9.25;;;4.10;;
57077;SDS011;75967;50.970;4.574;2024-01-27T11:24:28;17.45;;;5.13;;
57077;SDS011;75967;50.970;4.574;2024-01-27T11:27:03;11.05;;;3.60;;
57077;SDS011;75967;50.970;4.574;2024-01-27T11:29:30;12.75;;;3.92;;
57077;SDS011;75967;50.970;4.574;2024-01-27T11:32:00;14.90;;;6.55;;
57077;SDS011;75967;50.970;4.574;2024-01-27T11:34:27;19.38;;;7.32;;
57077;SDS011;75967;50.970;4.574;2024-01-27T11:36:53;15.60;;;6.63;;
57077;SDS011;75967;50.970;4.574;2024-01-27T11:42:06;16.10;;;5.57;;
57077;SDS011;75967;50.970;4.574;2024-01-27T11:47:01;10.45;;;4.82;;
57077;SDS011;75967;50.970;4.574;2024-01-27T11:49:27;8.43;;;3.92;;
57077;SDS011;75967;50.970;4.574;2024-01-27T11:51:53;12.60;;;4.22;;
57077;SDS011;75967;50.970;4.574;2024-01-27T11:54:20;9.35;;;3.47;;
57077;SDS011;75967;50.970;4.574;2024-01-27T11:56:45;7.72;;;3.60;;
57077;SDS011;75967;50.970;4.574;2024-01-27T11:59:11;12.52;;;3.58;;
57077;SDS011;75967;50.970;4.574;2024-01-27T12:01:37;12.00;;;3.92;;
57077;SDS011;75967;50.970;4.574;2024-01-27T12:04:06;11.73;;;3.97;;
57077;SDS011;75967;50.970;4.574;2024-01-27T12:06:34;11.32;;;3.88;;
57077;SDS011;75967;50.970;4.574;2024-01-27T12:09:00;9.45;;;3.70;;
57077;SDS011;75967;50.970;4.574;2024-01-27T12:11:26;15.23;;;5.57;;
57077;SDS011;75967;50.970;4.574;2024-01-27T12:13:52;21.27;;;7.55;;
57077;SDS011;75967;50.970;4.574;2024-01-27T12:16:18;16.90;;;6.35;;
57077;SDS011;75967;50.970;4.574;2024-01-27T12:18:47;16.75;;;4.97;;
57077;SDS011;75967;50.970;4.574;2024-01-27T12:21:19;31.58;;;10.35;;
57077;SDS011;75967;50.970;4.574;2024-01-27T12:26:17;56.20;;;23.10;;
57077;SDS011;75967;50.970;4.574;2024-01-27T12:28:45;49.88;;;28.23;;
57077;SDS011;75967;50.970;4.574;2024-01-27T12:31:12;11.15;;;5.50;;
57077;SDS011;75967;50.970;4.574;2024-01-27T12:33:40;12.05;;;4.45;;
57077;SDS011;75967;50.970;4.574;2024-01-27T12:36:07;10.88;;;3.63;;
57077;SDS011;75967;50.970;4.574;2024-01-27T12:38:33;12.48;;;6.30;;
57077;SDS011;75967;50.970;4.574;2024-01-27T12:40:58;20.65;;;11.30;;
57077;SDS011;75967;50.970;4.574;2024-01-27T12:43:24;8.00;;;4.18;;
57077;SDS011;75967;50.970;4.574;2024-01-27T12:45:50;12.65;;;4.07;;
57077;SDS011;75967;50.970;4.574;2024-01-27T12:48:15;16.27;;;5.25;;
57077;SDS011;75967;50.970;4.574;2024-01-27T12:50:41;12.05;;;4.32;;
57077;SDS011;75967;50.970;4.574;2024-01-27T12:53:07;12.82;;;5.53;;
57077;SDS011;75967;50.970;4.574;2024-01-27T12:55:32;10.38;;;3.95;;
57077;SDS011;75967;50.970;4.574;2024-01-27T12:57:58;12.15;;;5.70;;
57077;SDS011;75967;50.970;4.574;2024-01-27T13:00:24;13.43;;;6.22;;
57077;SDS011;75967;50.970;4.574;2024-01-27T13:02:50;11.20;;;4.38;;
57077;SDS011;75967;50.970;4.574;2024-01-27T13:05:15;14.73;;;6.75;;
57077;SDS011;75967;50.970;4.574;2024-01-27T13:07:41;11.95;;;4.20;;
57077;SDS011;75967;50.970;4.574;2024-01-27T13:10:07;9.38;;;5.13;;
57077;SDS011;75967;50.970;4.574;2024-01-27T13:12:33;5.80;;;2.88;;
57077;SDS011;75967;50.970;4.574;2024-01-27T13:14:58;9.27;;;3.88;;
57077;SDS011;75967;50.970;4.574;2024-01-27T13:17:24;8.13;;;3.65;;
57077;SDS011;75967;50.970;4.574;2024-01-27T13:19:50;7.88;;;3.50;;
57077;SDS011;75967;50.970;4.574;2024-01-27T13:22:15;8.60;;;3.03;;
57077;SDS011;75967;50.970;4.574;2024-01-27T13:24:41;10.95;;;2.80;;
57077;SDS011;75967;50.970;4.574;2024-01-27T13:27:07;17.73;;;7.28;;
57077;SDS011;75967;50.970;4.574;2024-01-27T13:29:34;11.68;;;5.90;;
57077;SDS011;75967;50.970;4.574;2024-01-27T13:32:00;8.65;;;2.97;;
57077;SDS011;75967;50.970;4.574;2024-01-27T13:34:27;5.97;;;2.10;;
57077;SDS011;75967;50.970;4.574;2024-01-27T13:36:55;11.65;;;2.78;;
57077;SDS011;75967;50.970;4.574;2024-01-27T13:39:22;8.88;;;2.30;;
57077;SDS011;75967;50.970;4.574;2024-01-27T13:41:47;6.22;;;2.80;;
57077;SDS011;75967;50.970;4.574;2024-01-27T13:44:13;9.90;;;3.03;;
57077;SDS011;75967;50.970;4.574;2024-01-27T13:46:38;8.02;;;3.30;;
57077;SDS011;75967;50.970;4.574;2024-01-27T13:49:04;5.32;;;2.58;;
57077;SDS011;75967;50.970;4.574;2024-01-27T13:51:30;9.18;;;2.50;;
57077;SDS011;75967;50.970;4.574;2024-01-27T13:53:55;10.07;;;2.70;;
57077;SDS011;75967;50.970;4.574;2024-01-27T13:56:21;9.60;;;2.78;;
57077;SDS011;75967;50.970;4.574;2024-01-27T13:58:47;6.90;;;2.47;;
57077;SDS011;75967;50.970;4.574;2024-01-27T14:01:12;5.40;;;2.30;;
57077;SDS011;75967;50.970;4.574;2024-01-27T14:03:38;5.88;;;2.72;;
57077;SDS011;75967;50.970;4.574;2024-01-27T14:06:04;7.57;;;2.05;;
57077;SDS011;75967;50.970;4.574;2024-01-27T14:08:30;6.63;;;2.42;;
57077;SDS011;75967;50.970;4.574;2024-01-27T14:10:56;6.55;;;2.00;;
57077;SDS011;75967;50.970;4.574;2024-01-27T14:13:22;9.27;;;3.17;;
57077;SDS011;75967;50.970;4.574;2024-01-27T14:15:47;6.57;;;2.35;;
57077;SDS011;75967;50.970;4.574;2024-01-27T14:18:13;6.10;;;2.38;;
57077;SDS011;75967;50.970;4.574;2024-01-27T14:20:46;7.00;;;2.75;;
57077;SDS011;75967;50.970;4.574;2024-01-27T14:23:12;6.97;;;2.67;;
57077;SDS011;75967;50.970;4.574;2024-01-27T14:25:39;7.63;;;2.75;;
57077;SDS011;75967;50.970;4.574;2024-01-27T14:28:05;7.95;;;2.88;;
57077;SDS011;75967;50.970;4.574;2024-01-27T14:30:32;5.18;;;2.42;;
57077;SDS011;75967;50.970;4.574;2024-01-27T14:32:58;6.60;;;2.78;;
57077;SDS011;75967;50.970;4.574;2024-01-27T14:35:24;12.75;;;3.47;;
57077;SDS011;75967;50.970;4.574;2024-01-27T14:37:51;6.00;;;2.65;;
57077;SDS011;75967;50.970;4.574;2024-01-27T14:40:18;6.15;;;2.70;;